sensor_id;sensor_type;location;lat;lon;timestamp;temperature;humidity
11647;DHT22;5880;52.342;9.662;2024-01-11T00:00:14;-3.20;61.10
11647;DHT22;5880;52.342;9.662;2024-01-11T00:02:40;-3.20;61.20
11647;DHT22;5880;52.342;9.662;2024-01-11T00:05:06;-3.20;61.20
11647;DHT22;5880;52.342;9.662;2024-01-11T00:07:32;-3.20;61.30
11647;DHT22;5880;52.342;9.662;2024-01-11T00:09:58;-3.20;61.40
11647;DHT22;5880;52.342;9.662;2024-01-11T00:12:23;-3.20;61.30
11647;DHT22;5880;52.342;9.662;2024-01-11T00:14:49;-3.20;61.20
11647;DHT22;5880;52.342;9.662;2024-01-11T00:17:15;-3.20;61.40
11647;DHT22;5880;52.342;9.662;2024-01-11T00:19:41;-3.20;61.30
11647;DHT22;5880;52.342;9.662;2024-01-11T00:22:06;-3.20;61.20
11647;DHT22;5880;52.342;9.662;2024-01-11T00:24:32;-3.20;61.20
11647;DHT22;5880;52.342;9.662;2024-01-11T00:26:58;-3.20;61.30
11647;DHT22;5880;52.342;9.662;2024-01-11T00:29:24;-3.10;61.50
11647;DHT22;5880;52.342;9.662;2024-01-11T00:31:49;-3.30;61.40
11647;DHT22;5880;52.342;9.662;2024-01-11T00:34:15;-3.30;62.20
11647;DHT22;5880;52.342;9.662;2024-01-11T00:36:40;-3.20;61.40
11647;DHT22;5880;52.342;9.662;2024-01-11T00:39:06;-3.30;61.40
11647;DHT22;5880;52.342;9.662;2024-01-11T00:41:32;-3.30;61.40
11647;DHT22;5880;52.342;9.662;2024-01-11T00:43:57;-3.30;61.40
11647;DHT22;5880;52.342;9.662;2024-01-11T00:46:23;-3.30;61.40
11647;DHT22;5880;52.342;9.662;2024-01-11T00:48:48;-3.30;61.40
11647;DHT22;5880;52.342;9.662;2024-01-11T00:51:15;-3.30;61.40
11647;DHT22;5880;52.342;9.662;2024-01-11T00:53:41;-3.30;61.50
11647;DHT22;5880;52.342;9.662;2024-01-11T00:56:15;-3.30;61.40
11647;DHT22;5880;52.342;9.662;2024-01-11T00:58:42;-3.40;61.20
11647;DHT22;5880;52.342;9.662;2024-01-11T01:01:11;-3.40;61.30
11647;DHT22;5880;52.342;9.662;2024-01-11T01:03:38;-3.40;61.30
11647;DHT22;5880;52.342;9.662;2024-01-11T01:06:04;-3.40;61.40
11647;DHT22;5880;52.342;9.662;2024-01-11T01:08:30;-3.40;61.50
11647;DHT22;5880;52.342;9.662;2024-01-11T01:10:56;-3.40;61.50
11647;DHT22;5880;52.342;9.662;2024-01-11T01:13:21;-3.40;61.50
11647;DHT22;5880;52.342;9.662;2024-01-11T01:15:47;-3.40;61.50
11647;DHT22;5880;52.342;9.662;2024-01-11T01:18:13;-3.40;61.60
11647;DHT22;5880;52.342;9.662;2024-01-11T01:20:39;-3.40;61.60
11647;DHT22;5880;52.342;9.662;2024-01-11T01:23:05;-3.40;61.70
11647;DHT22;5880;52.342;9.662;2024-01-11T01:25:30;-3.40;61.70
11647;DHT22;5880;52.342;9.662;2024-01-11T01:27:56;-3.40;61.80
11647;DHT22;5880;52.342;9.662;2024-01-11T01:30:22;-3.40;61.60
11647;DHT22;5880;52.342;9.662;2024-01-11T01:32:48;-3.50;61.60
11647;DHT22;5880;52.342;9.662;2024-01-11T01:35:15;-3.40;61.70
11647;DHT22;5880;52.342;9.662;2024-01-11T01:37:41;-3.50;61.60
11647;DHT22;5880;52.342;9.662;2024-01-11T01:40:07;-3.50;61.60
11647;DHT22;5880;52.342;9.662;2024-01-11T01:42:33;-3.50;61.60
11647;DHT22;5880;52.342;9.662;2024-01-11T01:44:59;-3.50;61.60
11647;DHT22;5880;52.342;9.662;2024-01-11T01:47:26;-3.50;61.70
11647;DHT22;5880;52.342;9.662;2024-01-11T01:49:53;-3.50;61.70
11647;DHT22;5880;52.342;9.662;2024-01-11T01:52:21;-3.50;61.80
11647;DHT22;5880;52.342;9.662;2024-01-11T01:54:48;-3.50;61.70
11647;DHT22;5880;52.342;9.662;2024-01-11T01:57:16;-3.50;61.80
11647;DHT22;5880;52.342;9.662;2024-01-11T01:59:45;-3.50;61.80
11647;DHT22;5880;52.342;9.662;2024-01-11T02:02:14;-3.50;61.80
11647;DHT22;5880;52.342;9.662;2024-01-11T02:04:40;-3.50;61.90
11647;DHT22;5880;52.342;9.662;2024-01-11T02:07:06;-3.50;61.90
11647;DHT22;5880;52.342;9.662;2024-01-11T02:09:33;-3.50;61.80
11647;DHT22;5880;52.342;9.662;2024-01-11T02:11:59;-3.50;61.80
11647;DHT22;5880;52.342;9.662;2024-01-11T02:14:26;-3.50;61.70
11647;DHT22;5880;52.342;9.662;2024-01-11T02:16:52;-3.50;61.70
11647;DHT22;5880;52.342;9.662;2024-01-11T02:19:19;-3.60;61.70
11647;DHT22;5880;52.342;9.662;2024-01-11T02:21:46;-3.50;61.90
11647;DHT22;5880;52.342;9.662;2024-01-11T02:24:14;-3.50;61.80
11647;DHT22;5880;52.342;9.662;2024-01-11T02:27:00;-3.60;61.70
11647;DHT22;5880;52.342;9.662;2024-01-11T02:29:28;-3.50;61.70
11647;DHT22;5880;52.342;9.662;2024-01-11T02:31:55;-3.60;61.60
11647;DHT22;5880;52.342;9.662;2024-01-11T02:34:23;-3.60;61.60
11647;DHT22;5880;52.342;9.662;2024-01-11T02:36:49;-3.60;61.70
11647;DHT22;5880;52.342;9.662;2024-01-11T02:39:17;-3.60;61.70
11647;DHT22;5880;52.342;9.662;2024-01-11T02:41:44;-3.60;61.80
11647;DHT22;5880;52.342;9.662;2024-01-11T02:44:10;-3.60;61.90
11647;DHT22;5880;52.342;9.662;2024-01-11T02:46:36;-3.60;62.00
11647;DHT22;5880;52.342;9.662;2024-01-11T02:49:02;-3.60;61.90
11647;DHT22;5880;52.342;9.662;2024-01-11T02:51:27;-3.70;61.80
11647;DHT22;5880;52.342;9.662;2024-01-11T02:53:53;-3.70;61.80
11647;DHT22;5880;52.342;9.662;2024-01-11T02:56:19;-3.70;61.80
11647;DHT22;5880;52.342;9.662;2024-01-11T02:58:44;-3.70;61.90
11647;DHT22;5880;52.342;9.662;2024-01-11T03:01:10;-3.70;62.00
11647;DHT22;5880;52.342;9.662;2024-01-11T03:03:36;-3.70;62.10
11647;DHT22;5880;52.342;9.662;2024-01-11T03:06:02;-3.70;62.20
11647;DHT22;5880;52.342;9.662;2024-01-11T03:08:28;-3.70;62.20
11647;DHT22;5880;52.342;9.662;2024-01-11T03:10:54;-3.70;62.00
11647;DHT22;5880;52.342;9.662;2024-01-11T03:13:20;-3.70;62.00
11647;DHT22;5880;52.342;9.662;2024-01-11T03:15:46;-3.70;62.10
11647;DHT22;5880;52.342;9.662;2024-01-11T03:18:11;-3.80;62.10
11647;DHT22;5880;52.342;9.662;2024-01-11T03:20:37;-3.70;62.30
11647;DHT22;5880;52.342;9.662;2024-01-11T03:23:03;-3.70;62.30
11647;DHT22;5880;52.342;9.662;2024-01-11T03:25:32;-3.70;62.40
11647;DHT22;5880;52.342;9.662;2024-01-11T03:27:58;-3.70;62.40
11647;DHT22;5880;52.342;9.662;2024-01-11T03:30:24;-3.70;62.30
11647;DHT22;5880;52.342;9.662;2024-01-11T03:32:50;-3.70;62.30
11647;DHT22;5880;52.342;9.662;2024-01-11T03:35:17;-3.70;62.30
11647;DHT22;5880;52.342;9.662;2024-01-11T03:37:44;-3.70;62.30
11647;DHT22;5880;52.342;9.662;2024-01-11T03:40:10;-3.70;62.40
11647;DHT22;5880;52.342;9.662;2024-01-11T03:42:35;-3.70;62.40
11647;DHT22;5880;52.342;9.662;2024-01-11T03:45:01;-3.50;62.50
11647;DHT22;5880;52.342;9.662;2024-01-11T03:47:28;-3.60;62.30
11647;DHT22;5880;52.342;9.662;2024-01-11T03:49:54;-3.60;62.30
11647;DHT22;5880;52.342;9.662;2024-01-11T03:52:19;-3.60;62.30
11647;DHT22;5880;52.342;9.662;2024-01-11T03:54:45;-3.60;62.30
11647;DHT22;5880;52.342;9.662;2024-01-11T03:57:11;-3.60;62.30
11647;DHT22;5880;52.342;9.662;2024-01-11T03:59:37;-3.60;62.30
11647;DHT22;5880;52.342;9.662;2024-01-11T04:02:02;-3.60;62.30
11647;DHT22;5880;52.342;9.662;2024-01-11T04:04:28;-3.60;62.30
11647;DHT22;5880;52.342;9.662;2024-01-11T04:06:54;-3.60;62.30
11647;DHT22;5880;52.342;9.662;2024-01-11T04:09:20;-3.60;62.30
11647;DHT22;5880;52.342;9.662;2024-01-11T04:11:45;-3.60;62.30
11647;DHT22;5880;52.342;9.662;2024-01-11T04:14:12;-3.60;62.30
11647;DHT22;5880;52.342;9.662;2024-01-11T04:16:41;-3.60;62.40
11647;DHT22;5880;52.342;9.662;2024-01-11T04:19:07;-3.60;62.30
11647;DHT22;5880;52.342;9.662;2024-01-11T04:21:33;-3.60;62.30
11647;DHT22;5880;52.342;9.662;2024-01-11T04:23:59;-3.60;62.30
11647;DHT22;5880;52.342;9.662;2024-01-11T04:26:25;-3.60;62.30
11647;DHT22;5880;52.342;9.662;2024-01-11T04:28:52;-3.60;62.30
11647;DHT22;5880;52.342;9.662;2024-01-11T04:31:19;-3.60;62.30
11647;DHT22;5880;52.342;9.662;2024-01-11T04:33:45;-3.60;62.30
11647;DHT22;5880;52.342;9.662;2024-01-11T04:36:12;-3.60;62.20
11647;DHT22;5880;52.342;9.662;2024-01-11T04:38:38;-3.60;62.20
11647;DHT22;5880;52.342;9.662;2024-01-11T04:41:08;-3.60;62.20
11647;DHT22;5880;52.342;9.662;2024-01-11T04:43:42;-3.60;62.30
11647;DHT22;5880;52.342;9.662;2024-01-11T04:46:16;-3.60;62.30
11647;DHT22;5880;52.342;9.662;2024-01-11T04:48:46;-3.60;62.40
11647;DHT22;5880;52.342;9.662;2024-01-11T04:51:14;-3.60;62.40
11647;DHT22;5880;52.342;9.662;2024-01-11T04:53:41;-3.60;62.40
11647;DHT22;5880;52.342;9.662;2024-01-11T04:56:09;-3.60;62.30
11647;DHT22;5880;52.342;9.662;2024-01-11T04:58:38;-3.60;62.30
11647;DHT22;5880;52.342;9.662;2024-01-11T05:01:06;-3.60;62.30
11647;DHT22;5880;52.342;9.662;2024-01-11T05:03:32;-3.60;62.30
11647;DHT22;5880;52.342;9.662;2024-01-11T05:05:59;-3.60;62.30
11647;DHT22;5880;52.342;9.662;2024-01-11T05:08:26;-3.70;62.40
11647;DHT22;5880;52.342;9.662;2024-01-11T05:10:52;-3.60;62.40
11647;DHT22;5880;52.342;9.662;2024-01-11T05:13:18;-3.60;62.60
11647;DHT22;5880;52.342;9.662;2024-01-11T05:15:44;-3.60;62.50
11647;DHT22;5880;52.342;9.662;2024-01-11T05:18:10;-3.60;62.50
11647;DHT22;5880;52.342;9.662;2024-01-11T05:20:36;-3.60;62.50
11647;DHT22;5880;52.342;9.662;2024-01-11T05:23:02;-3.60;62.50
11647;DHT22;5880;52.342;9.662;2024-01-11T05:25:29;-3.60;62.50
11647;DHT22;5880;52.342;9.662;2024-01-11T05:27:58;-3.60;62.60
11647;DHT22;5880;52.342;9.662;2024-01-11T05:30:23;-3.60;62.60
11647;DHT22;5880;52.342;9.662;2024-01-11T05:32:49;-3.60;62.60
11647;DHT22;5880;52.342;9.662;2024-01-11T05:35:14;-3.60;62.60
11647;DHT22;5880;52.342;9.662;2024-01-11T05:37:40;-3.60;62.60
11647;DHT22;5880;52.342;9.662;2024-01-11T05:40:06;-3.60;62.50
11647;DHT22;5880;52.342;9.662;2024-01-11T05:42:33;-3.60;62.50
11647;DHT22;5880;52.342;9.662;2024-01-11T05:44:59;-3.60;62.70
11647;DHT22;5880;52.342;9.662;2024-01-11T05:47:24;-3.60;62.70
11647;DHT22;5880;52.342;9.662;2024-01-11T05:49:50;-3.60;62.70
11647;DHT22;5880;52.342;9.662;2024-01-11T05:52:16;-3.60;62.70
11647;DHT22;5880;52.342;9.662;2024-01-11T05:54:41;-3.60;62.80
11647;DHT22;5880;52.342;9.662;2024-01-11T05:57:07;-3.60;62.80
11647;DHT22;5880;52.342;9.662;2024-01-11T05:59:33;-3.60;62.90
11647;DHT22;5880;52.342;9.662;2024-01-11T06:01:59;-3.60;63.00
11647;DHT22;5880;52.342;9.662;2024-01-11T06:04:26;-3.60;63.00
11647;DHT22;5880;52.342;9.662;2024-01-11T06:06:52;-3.50;63.10
11647;DHT22;5880;52.342;9.662;2024-01-11T06:09:17;-3.50;63.10
11647;DHT22;5880;52.342;9.662;2024-01-11T06:11:43;-3.50;63.10
11647;DHT22;5880;52.342;9.662;2024-01-11T06:14:09;-3.50;63.00
11647;DHT22;5880;52.342;9.662;2024-01-11T06:16:35;-3.50;63.00
11647;DHT22;5880;52.342;9.662;2024-01-11T06:19:00;-3.50;63.10
11647;DHT22;5880;52.342;9.662;2024-01-11T06:21:26;-3.50;63.10
11647;DHT22;5880;52.342;9.662;2024-01-11T06:23:52;-3.50;63.20
11647;DHT22;5880;52.342;9.662;2024-01-11T06:26:17;-3.50;63.20
11647;DHT22;5880;52.342;9.662;2024-01-11T06:28:43;-3.50;63.20
11647;DHT22;5880;52.342;9.662;2024-01-11T06:31:12;-3.40;63.20
11647;DHT22;5880;52.342;9.662;2024-01-11T06:33:37;-3.40;63.10
11647;DHT22;5880;52.342;9.662;2024-01-11T06:36:05;-3.40;63.10
11647;DHT22;5880;52.342;9.662;2024-01-11T06:38:33;-3.40;63.10
11647;DHT22;5880;52.342;9.662;2024-01-11T06:40:59;-3.40;63.10
11647;DHT22;5880;52.342;9.662;2024-01-11T06:43:24;-3.40;63.10
11647;DHT22;5880;52.342;9.662;2024-01-11T06:45:50;-3.40;63.10
11647;DHT22;5880;52.342;9.662;2024-01-11T06:48:16;-3.40;63.10
11647;DHT22;5880;52.342;9.662;2024-01-11T06:50:42;-3.40;63.10
11647;DHT22;5880;52.342;9.662;2024-01-11T06:53:07;-3.40;63.00
11647;DHT22;5880;52.342;9.662;2024-01-11T06:55:33;-3.40;63.10
11647;DHT22;5880;52.342;9.662;2024-01-11T06:57:58;-3.30;63.20
11647;DHT22;5880;52.342;9.662;2024-01-11T07:00:24;-3.40;63.10
11647;DHT22;5880;52.342;9.662;2024-01-11T07:02:50;-3.40;63.00
11647;DHT22;5880;52.342;9.662;2024-01-11T07:05:16;-3.40;63.00
11647;DHT22;5880;52.342;9.662;2024-01-11T07:07:42;-3.40;62.90
11647;DHT22;5880;52.342;9.662;2024-01-11T07:10:07;-3.40;62.80
11647;DHT22;5880;52.342;9.662;2024-01-11T07:12:34;-3.40;62.90
11647;DHT22;5880;52.342;9.662;2024-01-11T07:14:59;-3.40;62.90
11647;DHT22;5880;52.342;9.662;2024-01-11T07:17:25;-3.40;62.90
11647;DHT22;5880;52.342;9.662;2024-01-11T07:19:50;-3.40;63.40
11647;DHT22;5880;52.342;9.662;2024-01-11T07:22:16;-3.40;63.20
11647;DHT22;5880;52.342;9.662;2024-01-11T07:24:42;-3.40;63.30
11647;DHT22;5880;52.342;9.662;2024-01-11T07:27:08;-3.40;63.40
11647;DHT22;5880;52.342;9.662;2024-01-11T07:29:34;-3.40;63.40
11647;DHT22;5880;52.342;9.662;2024-01-11T07:32:01;-3.30;63.50
11647;DHT22;5880;52.342;9.662;2024-01-11T07:34:27;-3.30;63.60
11647;DHT22;5880;52.342;9.662;2024-01-11T07:36:53;-3.30;63.50
11647;DHT22;5880;52.342;9.662;2024-01-11T07:39:19;-3.30;63.50
11647;DHT22;5880;52.342;9.662;2024-01-11T07:41:45;-3.30;63.40
11647;DHT22;5880;52.342;9.662;2024-01-11T07:44:10;-3.30;63.30
11647;DHT22;5880;52.342;9.662;2024-01-11T07:46:36;-3.30;63.30
11647;DHT22;5880;52.342;9.662;2024-01-11T07:49:03;-3.30;63.30
11647;DHT22;5880;52.342;9.662;2024-01-11T07:51:29;-3.30;63.30
11647;DHT22;5880;52.342;9.662;2024-01-11T07:53:54;-3.30;63.50
11647;DHT22;5880;52.342;9.662;2024-01-11T07:56:20;-3.30;63.60
11647;DHT22;5880;52.342;9.662;2024-01-11T07:58:46;-3.30;63.60
11647;DHT22;5880;52.342;9.662;2024-01-11T08:01:12;-3.30;63.70
11647;DHT22;5880;52.342;9.662;2024-01-11T08:03:38;-3.30;63.70
11647;DHT22;5880;52.342;9.662;2024-01-11T08:06:04;-3.30;63.90
11647;DHT22;5880;52.342;9.662;2024-01-11T08:08:33;-3.30;64.00
11647;DHT22;5880;52.342;9.662;2024-01-11T08:10:59;-3.20;64.10
11647;DHT22;5880;52.342;9.662;2024-01-11T08:13:25;-3.20;64.10
11647;DHT22;5880;52.342;9.662;2024-01-11T08:15:50;-3.10;64.40
11647;DHT22;5880;52.342;9.662;2024-01-11T08:18:18;-3.10;64.40
11647;DHT22;5880;52.342;9.662;2024-01-11T08:20:44;-3.10;64.50
11647;DHT22;5880;52.342;9.662;2024-01-11T08:23:10;-3.00;64.50
11647;DHT22;5880;52.342;9.662;2024-01-11T08:25:35;-3.00;64.50
11647;DHT22;5880;52.342;9.662;2024-01-11T08:28:01;-2.90;64.60
11647;DHT22;5880;52.342;9.662;2024-01-11T08:30:28;-2.90;64.50
11647;DHT22;5880;52.342;9.662;2024-01-11T08:32:54;-2.90;64.50
11647;DHT22;5880;52.342;9.662;2024-01-11T08:35:21;-2.80;64.50
11647;DHT22;5880;52.342;9.662;2024-01-11T08:37:46;-2.80;64.50
11647;DHT22;5880;52.342;9.662;2024-01-11T08:40:12;-2.70;64.80
11647;DHT22;5880;52.342;9.662;2024-01-11T08:42:38;-2.70;64.60
11647;DHT22;5880;52.342;9.662;2024-01-11T08:45:05;-2.70;64.60
11647;DHT22;5880;52.342;9.662;2024-01-11T08:47:33;-2.60;64.60
11647;DHT22;5880;52.342;9.662;2024-01-11T08:49:59;-2.60;64.60
11647;DHT22;5880;52.342;9.662;2024-01-11T08:52:25;-2.60;64.60
11647;DHT22;5880;52.342;9.662;2024-01-11T08:54:51;-2.50;64.80
11647;DHT22;5880;52.342;9.662;2024-01-11T08:57:17;-2.50;64.70
11647;DHT22;5880;52.342;9.662;2024-01-11T08:59:43;-2.50;64.70
11647;DHT22;5880;52.342;9.662;2024-01-11T09:02:09;-2.50;64.70
11647;DHT22;5880;52.342;9.662;2024-01-11T09:04:36;-2.40;64.80
11647;DHT22;5880;52.342;9.662;2024-01-11T09:07:02;-2.40;65.00
11647;DHT22;5880;52.342;9.662;2024-01-11T09:09:28;-2.30;65.40
11647;DHT22;5880;52.342;9.662;2024-01-11T09:11:53;-2.20;65.60
11647;DHT22;5880;52.342;9.662;2024-01-11T09:14:19;-2.10;65.90
11647;DHT22;5880;52.342;9.662;2024-01-11T09:16:44;-2.10;66.00
11647;DHT22;5880;52.342;9.662;2024-01-11T09:19:11;-2.00;66.00
11647;DHT22;5880;52.342;9.662;2024-01-11T09:21:37;-1.90;66.10
11647;DHT22;5880;52.342;9.662;2024-01-11T09:24:03;-1.80;66.00
11647;DHT22;5880;52.342;9.662;2024-01-11T09:26:29;-1.70;66.10
11647;DHT22;5880;52.342;9.662;2024-01-11T09:28:55;-1.70;66.10
11647;DHT22;5880;52.342;9.662;2024-01-11T09:31:20;-1.60;66.10
11647;DHT22;5880;52.342;9.662;2024-01-11T09:33:46;-1.60;66.20
11647;DHT22;5880;52.342;9.662;2024-01-11T09:36:13;-1.50;66.20
11647;DHT22;5880;52.342;9.662;2024-01-11T09:38:39;-1.40;66.10
11647;DHT22;5880;52.342;9.662;2024-01-11T09:41:09;-1.30;66.10
11647;DHT22;5880;52.342;9.662;2024-01-11T09:43:37;-1.30;66.00
11647;DHT22;5880;52.342;9.662;2024-01-11T09:46:04;-1.30;66.10
11647;DHT22;5880;52.342;9.662;2024-01-11T09:48:35;-1.20;66.20
11647;DHT22;5880;52.342;9.662;2024-01-11T09:51:03;-1.20;66.20
11647;DHT22;5880;52.342;9.662;2024-01-11T09:53:33;-1.20;66.20
11647;DHT22;5880;52.342;9.662;2024-01-11T09:56:00;-1.10;66.20
11647;DHT22;5880;52.342;9.662;2024-01-11T09:58:26;-1.10;66.30
11647;DHT22;5880;52.342;9.662;2024-01-11T10:00:56;-1.00;66.30
11647;DHT22;5880;52.342;9.662;2024-01-11T10:03:24;-1.00;66.40
11647;DHT22;5880;52.342;9.662;2024-01-11T10:05:55;-1.00;66.40
11647;DHT22;5880;52.342;9.662;2024-01-11T10:08:23;-0.90;66.60
11647;DHT22;5880;52.342;9.662;2024-01-11T10:10:49;-0.90;66.70
11647;DHT22;5880;52.342;9.662;2024-01-11T10:13:16;-0.80;66.70
11647;DHT22;5880;52.342;9.662;2024-01-11T10:15:42;-0.80;66.80
11647;DHT22;5880;52.342;9.662;2024-01-11T10:18:09;-0.80;66.80
11647;DHT22;5880;52.342;9.662;2024-01-11T10:20:34;-0.70;67.00
11647;DHT22;5880;52.342;9.662;2024-01-11T10:23:02;-0.70;67.30
11647;DHT22;5880;52.342;9.662;2024-01-11T10:25:28;-0.70;67.00
11647;DHT22;5880;52.342;9.662;2024-01-11T10:27:54;-0.60;67.10
11647;DHT22;5880;52.342;9.662;2024-01-11T10:30:20;-0.60;67.10
11647;DHT22;5880;52.342;9.662;2024-01-11T10:32:48;-0.50;67.20
11647;DHT22;5880;52.342;9.662;2024-01-11T10:35:15;-0.40;67.20
11647;DHT22;5880;52.342;9.662;2024-01-11T10:37:43;-0.40;67.10
11647;DHT22;5880;52.342;9.662;2024-01-11T10:40:10;-0.30;67.30
11647;DHT22;5880;52.342;9.662;2024-01-11T10:42:44;-0.30;67.30
11647;DHT22;5880;52.342;9.662;2024-01-11T10:45:15;-0.30;67.30
11647;DHT22;5880;52.342;9.662;2024-01-11T10:48:02;-0.20;67.30
11647;DHT22;5880;52.342;9.662;2024-01-11T10:50:36;-0.20;67.30
11647;DHT22;5880;52.342;9.662;2024-01-11T10:53:45;-0.10;67.40
11647;DHT22;5880;52.342;9.662;2024-01-11T10:56:14;-0.10;67.60
11647;DHT22;5880;52.342;9.662;2024-01-11T10:58:44;-0.10;67.50
11647;DHT22;5880;52.342;9.662;2024-01-11T11:01:11;0.00;67.60
11647;DHT22;5880;52.342;9.662;2024-01-11T11:03:38;0.00;67.70
11647;DHT22;5880;52.342;9.662;2024-01-11T11:06:06;0.10;67.90
11647;DHT22;5880;52.342;9.662;2024-01-11T11:08:33;0.10;67.90
11647;DHT22;5880;52.342;9.662;2024-01-11T11:11:01;0.20;67.90
11647;DHT22;5880;52.342;9.662;2024-01-11T11:13:30;0.20;67.90
11647;DHT22;5880;52.342;9.662;2024-01-11T11:15:56;0.30;68.00
11647;DHT22;5880;52.342;9.662;2024-01-11T11:18:23;0.30;68.00
11647;DHT22;5880;52.342;9.662;2024-01-11T11:20:51;0.40;68.00
11647;DHT22;5880;52.342;9.662;2024-01-11T11:23:18;0.70;68.30
11647;DHT22;5880;52.342;9.662;2024-01-11T11:25:48;0.40;68.20
11647;DHT22;5880;52.342;9.662;2024-01-11T11:28:16;0.40;68.30
11647;DHT22;5880;52.342;9.662;2024-01-11T11:30:48;0.50;68.50
11647;DHT22;5880;52.342;9.662;2024-01-11T11:33:24;0.50;68.60
11647;DHT22;5880;52.342;9.662;2024-01-11T11:35:55;0.60;68.70
11647;DHT22;5880;52.342;9.662;2024-01-11T11:38:26;0.80;68.60
11647;DHT22;5880;52.342;9.662;2024-01-11T11:40:57;0.70;68.50
11647;DHT22;5880;52.342;9.662;2024-01-11T11:43:27;0.80;68.30
11647;DHT22;5880;52.342;9.662;2024-01-11T11:45:54;0.80;68.30
11647;DHT22;5880;52.342;9.662;2024-01-11T11:51:21;0.90;68.50
11647;DHT22;5880;52.342;9.662;2024-01-11T11:53:49;0.90;68.50
11647;DHT22;5880;52.342;9.662;2024-01-11T11:56:18;0.90;68.40
11647;DHT22;5880;52.342;9.662;2024-01-11T11:58:45;0.90;68.40
11647;DHT22;5880;52.342;9.662;2024-01-11T12:01:16;1.00;68.40
11647;DHT22;5880;52.342;9.662;2024-01-11T12:03:43;1.00;68.50
11647;DHT22;5880;52.342;9.662;2024-01-11T12:06:20;1.00;68.50
11647;DHT22;5880;52.342;9.662;2024-01-11T12:08:49;1.00;68.50
11647;DHT22;5880;52.342;9.662;2024-01-11T12:11:19;1.00;68.50
11647;DHT22;5880;52.342;9.662;2024-01-11T12:13:50;1.10;68.60
11647;DHT22;5880;52.342;9.662;2024-01-11T12:16:16;1.10;68.70
11647;DHT22;5880;52.342;9.662;2024-01-11T12:18:41;1.10;68.70
11647;DHT22;5880;52.342;9.662;2024-01-11T12:21:08;1.10;68.70
11647;DHT22;5880;52.342;9.662;2024-01-11T12:23:37;1.20;68.70
11647;DHT22;5880;52.342;9.662;2024-01-11T12:26:06;1.20;68.70
11647;DHT22;5880;52.342;9.662;2024-01-11T12:28:38;1.20;68.70
11647;DHT22;5880;52.342;9.662;2024-01-11T12:31:05;1.20;68.90
11647;DHT22;5880;52.342;9.662;2024-01-11T12:33:32;1.20;68.90
11647;DHT22;5880;52.342;9.662;2024-01-11T12:35:59;1.30;69.10
11647;DHT22;5880;52.342;9.662;2024-01-11T12:38:25;1.30;69.20
11647;DHT22;5880;52.342;9.662;2024-01-11T12:40:50;1.30;69.20
11647;DHT22;5880;52.342;9.662;2024-01-11T12:43:16;1.40;69.30
11647;DHT22;5880;52.342;9.662;2024-01-11T12:45:43;1.40;69.40
11647;DHT22;5880;52.342;9.662;2024-01-11T12:48:09;1.50;69.50
11647;DHT22;5880;52.342;9.662;2024-01-11T12:50:35;1.50;69.50
11647;DHT22;5880;52.342;9.662;2024-01-11T12:53:12;1.50;69.50
11647;DHT22;5880;52.342;9.662;2024-01-11T12:55:46;1.60;69.50
11647;DHT22;5880;52.342;9.662;2024-01-11T12:58:13;1.60;69.30
11647;DHT22;5880;52.342;9.662;2024-01-11T13:00:45;1.70;69.30
11647;DHT22;5880;52.342;9.662;2024-01-11T13:03:11;1.70;69.30
11647;DHT22;5880;52.342;9.662;2024-01-11T13:05:37;1.70;69.20
11647;DHT22;5880;52.342;9.662;2024-01-11T13:08:09;1.70;69.20
11647;DHT22;5880;52.342;9.662;2024-01-11T13:10:36;1.80;69.20
11647;DHT22;5880;52.342;9.662;2024-01-11T13:13:03;1.80;69.10
11647;DHT22;5880;52.342;9.662;2024-01-11T13:15:30;1.80;69.10
11647;DHT22;5880;52.342;9.662;2024-01-11T13:18:00;1.90;69.20
11647;DHT22;5880;52.342;9.662;2024-01-11T13:20:27;1.80;69.20
11647;DHT22;5880;52.342;9.662;2024-01-11T13:25:46;1.90;69.50
11647;DHT22;5880;52.342;9.662;2024-01-11T13:28:13;1.90;69.40
11647;DHT22;5880;52.342;9.662;2024-01-11T13:30:43;1.90;69.40
11647;DHT22;5880;52.342;9.662;2024-01-11T13:33:10;1.90;69.40
11647;DHT22;5880;52.342;9.662;2024-01-11T13:35:37;1.30;69.10
11647;DHT22;5880;52.342;9.662;2024-01-11T13:38:04;2.00;69.40
11647;DHT22;5880;52.342;9.662;2024-01-11T13:40:31;1.90;69.40
11647;DHT22;5880;52.342;9.662;2024-01-11T13:42:58;1.90;69.40
11647;DHT22;5880;52.342;9.662;2024-01-11T13:45:25;2.00;69.50
11647;DHT22;5880;52.342;9.662;2024-01-11T13:47:55;2.00;69.50
11647;DHT22;5880;52.342;9.662;2024-01-11T13:50:22;2.10;69.60
11647;DHT22;5880;52.342;9.662;2024-01-11T13:52:49;2.00;69.50
11647;DHT22;5880;52.342;9.662;2024-01-11T13:55:16;2.10;69.60
11647;DHT22;5880;52.342;9.662;2024-01-11T13:57:43;2.10;69.50
11647;DHT22;5880;52.342;9.662;2024-01-11T14:00:10;2.10;69.50
11647;DHT22;5880;52.342;9.662;2024-01-11T14:02:39;2.10;69.50
11647;DHT22;5880;52.342;9.662;2024-01-11T14:05:10;2.10;69.50
11647;DHT22;5880;52.342;9.662;2024-01-11T14:07:42;2.10;69.50
11647;DHT22;5880;52.342;9.662;2024-01-11T14:10:10;2.10;69.50
11647;DHT22;5880;52.342;9.662;2024-01-11T14:12:39;2.10;69.50
11647;DHT22;5880;52.342;9.662;2024-01-11T14:15:07;2.60;69.70
11647;DHT22;5880;52.342;9.662;2024-01-11T14:17:37;2.20;69.50
11647;DHT22;5880;52.342;9.662;2024-01-11T14:20:04;2.20;69.50
11647;DHT22;5880;52.342;9.662;2024-01-11T14:22:32;2.20;69.50
11647;DHT22;5880;52.342;9.662;2024-01-11T14:24:57;2.20;69.60
11647;DHT22;5880;52.342;9.662;2024-01-11T14:27:23;2.20;69.60
11647;DHT22;5880;52.342;9.662;2024-01-11T14:29:49;2.30;69.80
11647;DHT22;5880;52.342;9.662;2024-01-11T14:32:15;2.30;69.80
11647;DHT22;5880;52.342;9.662;2024-01-11T14:34:43;2.30;69.80
11647;DHT22;5880;52.342;9.662;2024-01-11T14:37:11;2.30;69.90
11647;DHT22;5880;52.342;9.662;2024-01-11T14:39:38;2.20;69.80
11647;DHT22;5880;52.342;9.662;2024-01-11T14:42:04;2.30;70.00
11647;DHT22;5880;52.342;9.662;2024-01-11T14:44:29;2.30;70.00
11647;DHT22;5880;52.342;9.662;2024-01-11T14:46:55;2.30;70.00
11647;DHT22;5880;52.342;9.662;2024-01-11T14:49:21;2.30;70.00
11647;DHT22;5880;52.342;9.662;2024-01-11T14:51:47;2.40;70.00
11647;DHT22;5880;52.342;9.662;2024-01-11T14:54:13;2.40;70.00
11647;DHT22;5880;52.342;9.662;2024-01-11T14:56:38;2.40;70.00
11647;DHT22;5880;52.342;9.662;2024-01-11T14:59:04;2.40;70.00
11647;DHT22;5880;52.342;9.662;2024-01-11T15:01:30;2.40;70.00
11647;DHT22;5880;52.342;9.662;2024-01-11T15:03:56;2.40;70.00
11647;DHT22;5880;52.342;9.662;2024-01-11T15:06:21;2.40;70.10
11647;DHT22;5880;52.342;9.662;2024-01-11T15:08:47;2.40;70.10
11647;DHT22;5880;52.342;9.662;2024-01-11T15:11:13;2.50;70.20
11647;DHT22;5880;52.342;9.662;2024-01-11T15:13:39;2.50;70.20
11647;DHT22;5880;52.342;9.662;2024-01-11T15:16:05;2.50;70.20
11647;DHT22;5880;52.342;9.662;2024-01-11T15:18:31;2.50;70.20
11647;DHT22;5880;52.342;9.662;2024-01-11T15:20:57;2.50;70.20
11647;DHT22;5880;52.342;9.662;2024-01-11T15:23:23;2.50;70.20
11647;DHT22;5880;52.342;9.662;2024-01-11T15:25:49;2.50;70.20
11647;DHT22;5880;52.342;9.662;2024-01-11T15:28:14;2.60;70.20
11647;DHT22;5880;52.342;9.662;2024-01-11T15:30:40;2.60;70.20
11647;DHT22;5880;52.342;9.662;2024-01-11T15:33:06;2.60;70.30
11647;DHT22;5880;52.342;9.662;2024-01-11T15:35:31;2.60;70.30
11647;DHT22;5880;52.342;9.662;2024-01-11T15:37:57;2.60;70.30
11647;DHT22;5880;52.342;9.662;2024-01-11T15:40:23;2.60;70.30
11647;DHT22;5880;52.342;9.662;2024-01-11T15:42:49;2.60;70.30
11647;DHT22;5880;52.342;9.662;2024-01-11T15:45:14;2.60;70.40
11647;DHT22;5880;52.342;9.662;2024-01-11T15:47:40;2.60;70.30
11647;DHT22;5880;52.342;9.662;2024-01-11T15:50:07;2.60;70.30
11647;DHT22;5880;52.342;9.662;2024-01-11T15:52:37;2.60;70.30